Time;durP1;ratioP1;P1;durP2;ratioP2;P2;SDS_P1;SDS_P2;PMS_P1;PMS_P2;Temp;Humidity;BMP_temperature;BMP_pressure;BME280_temperature;BME280_humidity;BME280_pressure;Samples;Min_cycle;Max_cycle;Signal;HPM_P1;HPM_P2
2023/03/02 00:01:21;;;;;;;38.58;18.90;;;205.10;2252.80;;;;;;5072770;28;20039;-76
2023/03/02 00:03:47;;;;;;;34.47;17.48;;;205.20;2252.80;;;;;;5074266;28;20537;-77
2023/03/02 00:06:13;;;;;;;36.70;18.88;;;205.30;2252.80;;;;;;5074106;28;20039;-76
2023/03/02 00:08:39;;;;;;;;;;;205.20;2252.80;;;;;;5075046;28;20504;-76
2023/03/02 00:11:05;;;;;;;41.08;18.30;;;205.20;2252.80;;;;;;5074143;28;19904;-77
2023/03/02 00:13:33;;;;;;;;;;;205.30;2252.80;;;;;;5073177;28;20563;-77
2023/03/02 00:15:58;;;;;;;35.33;17.52;;;205.30;2252.80;;;;;;5073925;28;20001;-76
2023/03/02 00:18:24;;;;;;;;;;;205.30;2252.80;;;;;;5074649;28;20049;-77
2023/03/02 00:20:50;;;;;;;35.88;18.05;;;205.40;2252.80;;;;;;5072820;28;19904;-76
2023/03/02 00:23:15;;;;;;;;;;;205.30;2252.80;;;;;;5074825;28;20040;-77
2023/03/02 00:25:41;;;;;;;40.35;20.58;;;205.30;2252.80;;;;;;5072989;28;19936;-76
2023/03/02 00:28:07;;;;;;;40.85;19.65;;;205.30;2252.80;;;;;;5077587;28;20039;-75
2023/03/02 00:30:33;;;;;;;;;;;205.30;2252.80;;;;;;5073046;28;20029;-77
2023/03/02 00:32:58;;;;;;;38.42;19.10;;;205.30;2252.80;;;;;;5073723;28;19932;-76
2023/03/02 00:35:27;;;;;;;41.85;19.30;;;205.30;2252.80;;;;;;5074429;28;20017;-77
2023/03/02 00:37:52;;;;;;;38.72;18.13;;;205.30;2252.80;;;;;;5073762;28;20036;-76
2023/03/02 00:40:18;;;;;;;41.72;19.05;;;205.30;2252.80;;;;;;5073424;28;20055;-76
2023/03/02 00:42:44;;;;;;;;;;;205.30;2252.80;;;;;;5071389;28;20123;-76
2023/03/02 00:45:10;;;;;;;36.40;17.50;;;205.40;2252.80;;;;;;5072507;28;19930;-77
2023/03/02 00:47:36;;;;;;;;;;;205.40;2252.80;;;;;;5072900;28;20171;-77
2023/03/02 00:50:03;;;;;;;33.85;16.67;;;205.50;2252.80;;;;;;5073081;28;19908;-77
2023/03/02 00:52:30;;;;;;;37.58;18.13;;;205.40;2252.80;;;;;;5070428;28;20025;-76
2023/03/02 00:54:56;;;;;;;36.85;19.17;;;205.40;2252.80;;;;;;5086561;28;20025;-76
2023/03/02 00:57:21;;;;;;;;;;;205.40;2252.80;;;;;;5063289;28;20519;-76
2023/03/02 00:59:48;;;;;;;34.30;16.88;;;205.40;2252.80;;;;;;5063340;28;19905;-76
2023/03/02 01:02:14;;;;;;;34.83;17.83;;;205.40;2252.80;;;;;;5062911;28;20079;-76
2023/03/02 01:04:41;;;;;;;;;;;205.40;2252.80;;;;;;5063208;28;20497;-77
2023/03/02 01:07:09;;;;;;;28.25;13.18;;;205.40;2252.80;;;;;;5063202;28;19904;-77
2023/03/02 01:09:36;;;;;;;34.42;17.90;;;205.30;2252.80;;;;;;5061567;28;20053;-77
2023/03/02 01:12:02;;;;;;;35.63;18.98;;;205.40;2252.80;;;;;;5060969;28;20029;-77
2023/03/02 01:14:28;;;;;;;36.30;19.13;;;205.50;2252.80;;;;;;5062078;28;20044;-77
2023/03/02 01:16:53;;;;;;;;;;;205.30;2252.80;;;;;;5063677;28;20037;-77
2023/03/02 01:19:19;;;;;;;31.92;16.63;;;205.40;2252.80;;;;;;5072206;28;20375;-76
2023/03/02 01:21:45;;;;;;;;;;;205.40;2252.80;;;;;;5063725;28;20376;-77
2023/03/02 01:24:11;;;;;;;33.60;16.45;;;205.40;2252.80;;;;;;5061354;28;19904;-77
2023/03/02 01:26:36;;;;;;;;;;;205.30;2252.80;;;;;;5061995;28;20051;-77
2023/03/02 01:29:03;;;;;;;33.38;16.88;;;205.30;2252.80;;;;;;5064106;28;19958;-77
2023/03/02 01:31:29;;;;;;;34.47;17.80;;;205.40;2252.80;;;;;;5063542;28;20461;-76
2023/03/02 01:33:55;;;;;;;29.58;16.10;;;205.40;2252.80;;;;;;5079678;28;20029;-77
2023/03/02 01:36:21;;;;;;;;;;;205.40;2252.80;;;;;;5061371;28;20036;-77
2023/03/02 01:38:47;;;;;;;30.52;15.35;;;205.40;2252.80;;;;;;5062701;28;19999;-76
2023/03/02 01:41:13;;;;;;;;;;;205.40;2252.80;;;;;;5062961;28;20061;-77
2023/03/02 01:43:39;;;;;;;34.90;15.30;;;205.30;2252.80;;;;;;5064765;28;19915;-77
2023/03/02 01:46:10;;;;;;;;;;;205.30;2252.80;;;;;;5061637;28;20037;-76
2023/03/02 01:48:53;;;;;;;29.00;15.13;;;205.30;2252.80;;;;;;5062697;28;19911;-77
2023/03/02 01:51:23;;;;;;;27.35;14.35;;;205.30;2252.80;;;;;;5062929;28;20045;-77
2023/03/02 01:53:56;;;;;;;27.15;14.68;;;205.40;2252.80;;;;;;5061354;28;20020;-77
2023/03/02 01:56:30;;;;;;;26.77;15.32;;;205.50;2252.80;;;;;;5063802;28;20032;-76
2023/03/02 01:59:01;;;;;;;27.00;14.75;;;205.50;2252.80;;;;;;5062570;28;20380;-76
2023/03/02 02:01:33;;;;;;;25.27;14.20;;;205.50;2252.80;;;;;;5062377;28;20025;-77
2023/03/02 02:04:00;;;;;;;29.40;14.63;;;205.50;2252.80;;;;;;5061996;28;20059;-77
2023/03/02 02:06:43;;;;;;;25.42;13.90;;;205.40;2252.80;;;;;;5068289;28;20028;-77
2023/03/02 02:09:12;;;;;;;26.95;14.52;;;205.40;2252.80;;;;;;5063912;28;20032;-76
2023/03/02 02:11:38;;;;;;;25.23;14.18;;;205.30;2252.80;;;;;;5063548;28;20025;-76
2023/03/02 02:14:03;;;;;;;;;;;205.30;2252.80;;;;;;5063067;28;20048;-77
2023/03/02 02:16:33;;;;;;;23.98;12.80;;;205.30;2252.80;;;;;;5063502;28;19916;-77
2023/03/02 02:19:00;;;;;;;21.15;11.75;;;205.40;2252.80;;;;;;5062423;28;20044;-77
2023/03/02 02:21:27;;;;;;;23.85;12.70;;;205.50;2252.80;;;;;;5061624;28;20029;-76
2023/03/02 02:24:21;;;;;;;21.27;12.73;;;205.60;2252.80;;;;;;5063111;28;20557;-77
2023/03/02 02:26:53;;;;;;;20.02;11.75;;;205.70;2252.80;;;;;;5060601;28;20601;-76
2023/03/02 02:29:32;;;;;;;22.35;12.55;;;205.70;2252.80;;;;;;5062087;28;20035;-77
2023/03/02 02:32:12;;;;;;;19.48;11.48;;;230.40;2252.80;;;;;;5062999;28;20056;-77
2023/03/02 02:34:43;;;;;;;28.10;13.65;;;205.70;2252.80;;;;;;5087053;28;20020;-76
2023/03/02 02:37:15;;;;;;;22.85;11.63;;;205.70;2252.80;;;;;;5085628;28;20109;-76
2023/03/02 02:39:45;;;;;;;23.45;13.63;;;205.60;2252.80;;;;;;5057860;28;20104;-77
2023/03/02 02:42:19;;;;;;;25.55;11.65;;;205.50;2252.80;;;;;;5050834;28;20490;-77
2023/03/02 02:44:45;;;;;;;25.23;12.75;;;205.50;2252.80;;;;;;5052393;28;20067;-77
2023/03/02 02:47:18;;;;;;;20.05;11.63;;;205.50;2252.80;;;;;;5051156;28;20469;-77
2023/03/02 02:49:46;;;;;;;21.52;11.40;;;205.60;2252.80;;;;;;5052444;28;20052;-76
2023/03/02 02:52:16;;;;;;;25.73;12.35;;;205.70;2252.80;;;;;;5050934;28;20470;-77
2023/03/02 02:54:50;;;;;;;20.73;11.18;;;205.60;2252.80;;;;;;5050815;28;20070;-77
2023/03/02 02:57:18;;;;;;;19.90;11.88;;;205.60;2252.80;;;;;;5052151;28;20033;-76
2023/03/02 03:00:14;;;;;;;21.35;11.43;;;205.60;2252.80;;;;;;5051059;28;20021;-76
2023/03/02 03:02:44;;;;;;;25.80;11.98;;;205.50;2252.80;;;;;;5051505;28;20056;-77
2023/03/02 03:05:15;;;;;;;20.77;11.15;;;205.60;2252.80;;;;;;5050790;28;20500;-76
2023/03/02 03:07:40;;;;;;;20.98;12.15;;;205.60;2252.80;;;;;;5052095;28;20021;-77
2023/03/02 03:10:24;;;;;;;;;;;205.60;2252.80;;;;;;5051330;28;20152;-77
2023/03/02 03:12:51;;;;;;;24.67;13.68;;;205.60;2252.80;;;;;;5050830;28;19908;-77
2023/03/02 03:15:17;;;;;;;23.05;12.77;;;205.70;2252.80;;;;;;5050826;28;20032;-76
2023/03/02 03:17:51;;;;;;;24.58;13.40;;;230.40;2252.80;;;;;;5052147;28;20037;-77
2023/03/02 03:20:18;;;;;;;26.17;13.55;;;205.70;2252.80;;;;;;5054409;28;20055;-76
2023/03/02 03:22:44;;;;;;;29.42;14.40;;;205.70;2252.80;;;;;;5054512;28;20362;-77
2023/03/02 03:25:14;;;;;;;;;;;205.70;2252.80;;;;;;5071462;28;20032;-76
2023/03/02 03:27:41;;;;;;;31.25;15.85;;;205.70;2252.80;;;;;;5054464;28;20335;-77
2023/03/02 03:30:09;;;;;;;36.72;16.10;;;205.70;2252.80;;;;;;5054298;28;20025;-77
2023/03/02 03:32:35;;;;;;;36.38;17.17;;;205.70;2252.80;;;;;;5070846;28;20052;-77
2023/03/02 03:35:02;;;;;;;41.17;20.02;;;205.60;2252.80;;;;;;5055462;28;20025;-77
2023/03/02 03:37:28;;;;;;;40.35;19.83;;;205.70;2252.80;;;;;;5054029;28;20041;-77
2023/03/02 03:39:54;;;;;;;33.28;18.88;;;205.60;2252.80;;;;;;5054077;28;20032;-77
2023/03/02 03:42:20;;;;;;;36.45;19.85;;;205.70;2252.80;;;;;;5053174;28;20041;-76
2023/03/02 03:44:46;;;;;;;39.08;20.52;;;205.70;2252.80;;;;;;5055382;28;20029;-77
2023/03/02 03:47:12;;;;;;;38.20;17.77;;;205.60;2252.80;;;;;;5054041;28;20174;-76
2023/03/02 03:49:37;;;;;;;41.50;21.00;;;205.70;2252.80;;;;;;5055345;28;20109;-77
2023/03/02 03:52:03;;;;;;;34.75;17.77;;;205.70;2252.80;;;;;;5070412;28;20112;-76
2023/03/02 03:54:29;;;;;;;;;;;205.70;2252.80;;;;;;5070590;28;20037;-77
2023/03/02 03:56:55;;;;;;;42.42;19.95;;;230.40;2252.80;;;;;;5055042;28;19913;-77
2023/03/02 03:59:22;;;;;;;;;;;205.60;2252.80;;;;;;5054388;28;20021;-77
2023/03/02 04:01:52;;;;;;;37.67;18.33;;;205.50;2252.80;;;;;;5053658;28;20382;-77
2023/03/02 04:04:27;;;;;;;37.45;19.13;;;205.50;2252.80;;;;;;5053642;28;20091;-77
2023/03/02 04:06:54;;;;;;;40.72;19.80;;;205.50;2252.80;;;;;;5052600;28;20128;-76
2023/03/02 04:09:21;;;;;;;37.63;20.10;;;205.40;2252.80;;;;;;5053512;28;20039;-77
2023/03/02 04:11:49;;;;;;;40.25;22.08;;;205.50;2252.80;;;;;;5053684;28;20025;-77
2023/03/02 04:14:15;;;;;;;41.45;21.95;;;205.50;2252.80;;;;;;5054633;28;20029;-76
2023/03/02 04:16:41;;;;;;;42.42;19.67;;;205.50;2252.80;;;;;;5054646;28;20040;-76
2023/03/02 04:19:09;;;;;;;40.40;21.23;;;205.60;2252.80;;;;;;5054590;28;20063;-77
2023/03/02 04:21:40;;;;;;;43.03;20.95;;;205.60;2252.80;;;;;;5054614;28;20028;-76
2023/03/02 04:24:07;;;;;;;38.22;20.92;;;205.60;2252.80;;;;;;5053296;28;20021;-77
2023/03/02 04:26:34;;;;;;;35.10;18.50;;;205.70;2252.80;;;;;;5054361;28;20044;-76
2023/03/02 04:29:01;;;;;;;35.88;19.17;;;205.70;2252.80;;;;;;5053535;28;20151;-77
2023/03/02 04:31:27;;;;;;;40.47;20.38;;;205.70;2252.80;;;;;;5053084;28;20493;-76
2023/03/02 04:33:53;;;;;;;;;;;205.70;2252.80;;;;;;5053499;28;20060;-76
2023/03/02 04:36:18;;;;;;;35.42;18.10;;;205.70;2252.80;;;;;;5054056;28;19936;-76
2023/03/02 04:38:44;;;;;;;;;;;205.60;2252.80;;;;;;5053499;28;20024;-76
2023/03/02 04:41:10;;;;;;;40.92;20.17;;;205.40;2252.80;;;;;;5054249;28;19905;-76
2023/03/02 04:43:36;;;;;;;38.40;19.08;;;205.30;2252.80;;;;;;5054066;28;20029;-76
2023/03/02 04:46:02;;;;;;;32.08;18.33;;;205.30;2252.80;;;;;;5054050;28;20481;-76
2023/03/02 04:48:28;;;;;;;42.42;19.50;;;205.30;2252.80;;;;;;5052744;28;20465;-76
2023/03/02 04:50:54;;;;;;;37.47;18.98;;;205.40;2252.80;;;;;;5053854;28;20075;-76
2023/03/02 04:53:20;;;;;;;;;;;205.40;2252.80;;;;;;5053099;28;20029;-76
2023/03/02 04:55:46;;;;;;;42.80;18.48;;;205.50;2252.80;;;;;;5069278;28;19909;-77
2023/03/02 04:58:13;;;;;;;36.28;18.83;;;205.50;2252.80;;;;;;5052600;28;20029;-76
2023/03/02 05:00:39;;;;;;;33.78;19.02;;;205.60;2252.80;;;;;;5052427;28;20492;-76
2023/03/02 05:03:05;;;;;;;32.88;17.73;;;205.60;2252.80;;;;;;5069247;28;20025;-77
2023/03/02 05:05:31;;;;;;;37.22;18.95;;;205.70;2252.80;;;;;;5053738;28;20021;-76
2023/03/02 05:07:57;;;;;;;;;;;205.70;2252.80;;;;;;5052688;28;20044;-76
2023/03/02 05:10:24;;;;;;;34.22;18.20;;;205.70;2252.80;;;;;;5052533;28;19913;-77
2023/03/02 05:13:04;;;;;;;35.00;19.05;;;205.70;2252.80;;;;;;5052256;28;20489;-77
2023/03/02 05:15:37;;;;;;;33.60;19.02;;;205.70;2252.80;;;;;;5052305;28;20500;-77
2023/03/02 05:18:06;;;;;;;31.38;17.23;;;205.70;2252.80;;;;;;5052191;28;20033;-76
2023/03/02 05:20:31;;;;;;;35.10;17.90;;;205.70;2252.80;;;;;;5053485;28;20025;-77
2023/03/02 05:23:00;;;;;;;35.28;19.15;;;205.70;2252.80;;;;;;5053253;28;20523;-77
2023/03/02 05:25:28;;;;;;;33.13;18.40;;;205.70;2252.80;;;;;;5053230;28;20028;-77
2023/03/02 05:27:54;;;;;;;27.35;17.25;;;205.70;2252.80;;;;;;5052337;28;20094;-76
2023/03/02 05:30:20;;;;;;;35.15;18.08;;;230.40;2252.80;;;;;;5052086;28;20033;-77
2023/03/02 05:32:46;;;;;;;35.35;18.00;;;230.40;2252.80;;;;;;5068541;28;20103;-76
2023/03/02 05:35:12;;;;;;;35.25;18.80;;;205.70;2252.80;;;;;;5052126;28;20058;-76
2023/03/02 05:37:41;;;;;;;42.33;17.85;;;230.40;2252.80;;;;;;5068486;28;20033;-77
2023/03/02 05:40:08;;;;;;;37.67;18.95;;;230.40;2252.80;;;;;;5068353;28;20028;-76
2023/03/02 05:42:35;;;;;;;31.55;15.73;;;205.70;2252.80;;;;;;5051765;28;20057;-77
2023/03/02 05:45:05;;;;;;;26.75;13.60;;;205.50;2252.80;;;;;;5068409;28;20032;-76
2023/03/02 05:47:31;;;;;;;21.92;12.50;;;205.50;2252.80;;;;;;5053007;28;20074;-77
2023/03/02 05:49:58;;;;;;;;;;;205.50;2252.80;;;;;;5068857;28;20025;-77
2023/03/02 05:52:24;;;;;;;27.60;13.18;;;205.50;2252.80;;;;;;5052816;28;19908;-76
2023/03/02 05:54:49;;;;;;;23.85;12.93;;;205.40;2252.80;;;;;;5051690;28;20036;-76
2023/03/02 05:57:15;;;;;;;;;;;205.30;2252.80;;;;;;5068883;28;20393;-76
2023/03/02 05:59:41;;;;;;;20.08;11.27;;;205.30;2252.80;;;;;;5052942;28;20402;-77
2023/03/02 06:02:06;;;;;;;;;;;205.30;2252.80;;;;;;5053136;28;20032;-77
2023/03/02 06:04:32;;;;;;;19.00;9.50;;;205.30;2252.80;;;;;;5062551;28;20356;-76
2023/03/02 06:06:58;;;;;;;20.52;10.15;;;205.30;2252.80;;;;;;5070828;28;20024;-76
2023/03/02 06:09:23;;;;;;;16.25;9.25;;;205.30;2252.80;;;;;;5070909;28;20104;-76
2023/03/02 06:11:49;;;;;;;;;;;205.30;2252.80;;;;;;5071421;28;20025;-76
2023/03/02 06:14:15;;;;;;;13.35;8.13;;;205.30;2252.80;;;;;;5072166;28;20344;-76
2023/03/02 06:16:40;;;;;;;;;;;205.30;2252.80;;;;;;5071452;28;20492;-76
2023/03/02 06:19:06;;;;;;;12.35;7.20;;;205.40;2252.80;;;;;;5073333;28;20425;-76
2023/03/02 06:21:31;;;;;;;;;;;205.30;2252.80;;;;;;5071700;28;20546;-77
2023/03/02 06:23:57;;;;;;;13.15;7.47;;;205.30;2252.80;;;;;;5071020;28;19999;-77
2023/03/02 06:26:23;;;;;;;;;;;205.70;2252.80;;;;;;5068647;28;20033;-77
2023/03/02 06:28:48;;;;;;;12.23;7.25;;;205.30;2252.80;;;;;;5075769;28;19908;-77
2023/03/02 06:31:15;;;;;;;;;;;205.40;2252.80;;;;;;5071369;28;20025;-77
2023/03/02 06:33:40;;;;;;;12.38;6.15;;;205.40;2252.80;;;;;;5066402;28;19905;-76
2023/03/02 06:36:06;;;;;;;;;;;205.30;2252.80;;;;;;5071341;28;20525;-76
2023/03/02 06:38:32;;;;;;;9.18;6.07;;;205.30;2252.80;;;;;;5071210;28;20307;-76
2023/03/02 06:40:59;;;;;;;11.30;5.85;;;205.30;2252.80;;;;;;5077139;28;20101;-76
2023/03/02 06:43:24;;;;;;;10.23;5.30;;;205.40;2252.80;;;;;;5071972;28;20029;-75
2023/03/02 06:45:50;;;;;;;;;;;205.40;2252.80;;;;;;5071353;28;20039;-77
2023/03/02 06:48:16;;;;;;;10.25;5.80;;;205.40;2252.80;;;;;;5071606;28;19905;-76
2023/03/02 06:50:42;;;;;;;7.65;4.50;;;205.40;2252.80;;;;;;5070924;28;20020;-80
2023/03/02 06:53:07;;;;;;;;;;;205.40;2252.80;;;;;;5072979;28;20047;-76
2023/03/02 06:55:33;;;;;;;7.70;4.57;;;205.40;2252.80;;;;;;5074769;28;19994;-76
2023/03/02 06:57:58;;;;;;;;;;;205.40;2252.80;;;;;;5076011;28;20032;-77
2023/03/02 07:00:26;;;;;;;7.95;4.60;;;205.40;2252.80;;;;;;5074422;28;19904;-77
2023/03/02 07:02:54;;;;;;;7.93;4.38;;;205.40;2252.80;;;;;;5074837;28;20028;-77
2023/03/02 07:05:22;;;;;;;6.70;4.32;;;230.40;2252.80;;;;;;5074533;28;20074;-76
2023/03/02 07:07:48;;;;;;;8.07;4.38;;;205.40;2252.80;;;;;;5073907;28;20392;-77
2023/03/02 07:10:13;;;;;;;;;;;205.30;2252.80;;;;;;5074935;28;20036;-77
2023/03/02 07:12:40;;;;;;;7.13;4.55;;;205.40;2252.80;;;;;;5075258;28;19909;-76
2023/03/02 07:15:09;;;;;;;8.90;4.32;;;205.40;2252.80;;;;;;5075885;28;20044;-76
2023/03/02 07:17:36;;;;;;;8.02;4.32;;;205.40;2252.80;;;;;;5075137;28;20487;-75
2023/03/02 07:20:06;;;;;;;8.70;5.25;;;205.30;2252.80;;;;;;5073496;28;20029;-74
2023/03/02 07:22:32;;;;;;;9.05;5.57;;;205.40;2252.80;;;;;;5074051;28;20066;-77
2023/03/02 07:24:57;;;;;;;;;;;205.40;2252.80;;;;;;5074444;28;20490;-76
2023/03/02 07:27:23;;;;;;;11.43;6.18;;;205.40;2252.80;;;;;;5074156;28;20365;-76
2023/03/02 07:29:49;;;;;;;;;;;205.40;2252.80;;;;;;5075264;28;20028;-77
2023/03/02 07:32:14;;;;;;;12.35;5.97;;;205.40;2252.80;;;;;;5075205;28;19950;-75
2023/03/02 07:34:40;;;;;;;11.05;5.82;;;205.50;2252.80;;;;;;5073915;28;20036;-75
2023/03/02 07:37:06;;;;;;;;;;;205.60;2252.80;;;;;;5074101;28;20035;-75
2023/03/02 07:39:32;;;;;;;8.02;5.15;;;205.60;2252.80;;;;;;5075529;28;20310;-76
2023/03/02 07:41:58;;;;;;;;;;;205.60;2252.80;;;;;;5074008;28;20358;-76
2023/03/02 07:44:24;;;;;;;5.80;3.50;;;205.60;2252.80;;;;;;5074018;28;19916;-77
2023/03/02 07:46:50;;;;;;;;;;;205.60;2252.80;;;;;;5076074;28;20032;-78
2023/03/02 07:49:15;;;;;;;7.18;3.83;;;205.60;2252.80;;;;;;5076750;28;20356;-76
2023/03/02 07:51:41;;;;;;;;;;;205.60;2252.80;;;;;;5068972;28;20368;-76
2023/03/02 07:54:08;;;;;;;5.38;3.17;;;205.50;2252.80;;;;;;5073611;28;19938;-76
2023/03/02 07:56:33;;;;;;;5.35;3.38;;;205.50;2252.80;;;;;;5073711;28;20487;-77
2023/03/02 07:58:59;;;;;;;;;;;205.50;2252.80;;;;;;5073760;28;20020;-78
2023/03/02 08:01:25;;;;;;;5.55;2.97;;;205.50;2252.80;;;;;;5083701;28;19912;-77
2023/03/02 08:03:50;;;;;;;;;;;205.50;2252.80;;;;;;5074055;28;20089;-76
2023/03/02 08:06:16;;;;;;;14.95;3.97;;;205.50;2252.80;;;;;;5073280;28;20364;-76
2023/03/02 08:08:42;;;;;;;;;;;205.50;2252.80;;;;;;5073852;28;20031;-75
2023/03/02 08:11:14;;;;;;;5.70;3.40;;;205.60;2252.80;;;;;;5073430;28;19904;-76
2023/03/02 08:13:40;;;;;;;5.40;3.13;;;205.50;2252.80;;;;;;5067058;28;20025;-77
2023/03/02 08:16:07;;;;;;;5.90;3.45;;;205.60;2252.80;;;;;;5074319;28;20046;-76
2023/03/02 08:18:34;;;;;;;8.15;3.53;;;205.50;2252.80;;;;;;5074438;28;20031;-77
2023/03/02 08:21:00;;;;;;;5.53;3.50;;;205.60;2252.80;;;;;;5074909;28;20029;-77
2023/03/02 08:23:26;;;;;;;5.47;3.22;;;205.50;2252.80;;;;;;5073602;28;20361;-83
2023/03/02 08:25:53;;;;;;;6.03;3.35;;;205.50;2252.80;;;;;;5074029;28;20059;-77
2023/03/02 08:28:20;;;;;;;9.90;3.85;;;205.60;2252.80;;;;;;5073085;28;20477;-77
2023/03/02 08:30:57;;;;;;;7.70;3.63;;;205.60;2252.80;;;;;;5087856;28;20131;-77
2023/03/02 08:33:24;;;;;;;4.88;2.90;;;205.60;2252.80;;;;;;5074171;28;20090;-77
2023/03/02 08:35:55;;;;;;;6.47;4.18;;;205.60;2252.80;;;;;;5073798;28;20070;-79
2023/03/02 08:38:22;;;;;;;11.68;4.13;;;205.60;2252.80;;;;;;5071290;28;20039;-78
2023/03/02 08:40:50;;;;;;;8.18;4.65;;;205.60;2252.80;;;;;;5074168;28;20448;-78
2023/03/02 08:43:16;;;;;;;6.28;4.00;;;205.60;2252.80;;;;;;5074443;28;20054;-77
2023/03/02 08:45:42;;;;;;;7.00;3.85;;;205.60;2252.80;;;;;;5074230;28;20020;-77
2023/03/02 08:48:07;;;;;;;8.13;4.38;;;205.60;2252.80;;;;;;5069392;28;20036;-79
2023/03/02 08:50:33;;;;;;;;;;;205.60;2252.80;;;;;;5082595;28;20078;-79
2023/03/02 08:52:58;;;;;;;8.32;4.97;;;205.60;2252.80;;;;;;5072505;28;20272;-78
2023/03/02 08:55:24;;;;;;;;;;;205.60;2252.80;;;;;;5072889;28;20473;-77
2023/03/02 08:57:50;;;;;;;8.95;3.40;;;205.70;2252.80;;;;;;5072445;28;19913;-78
2023/03/02 09:00:16;;;;;;;;;;;205.70;2252.80;;;;;;5074299;28;20027;-76
2023/03/02 09:02:41;;;;;;;9.23;3.67;;;205.70;2252.80;;;;;;5084942;28;19999;-78
2023/03/02 09:05:07;;;;;;;;;;;205.60;2252.80;;;;;;5073056;28;20056;-77
2023/03/02 09:07:33;;;;;;;6.80;3.58;;;205.60;2252.80;;;;;;5072400;28;19928;-79
2023/03/02 09:09:59;;;;;;;;;;;205.60;2252.80;;;;;;5072535;28;20020;-77
2023/03/02 09:12:24;;;;;;;15.95;4.75;;;205.70;2252.80;;;;;;5073142;28;20360;-77
2023/03/02 09:14:50;;;;;;;;;;;205.70;2252.80;;;;;;5072083;28;20036;-78
2023/03/02 09:17:16;;;;;;;6.93;3.92;;;230.40;2252.80;;;;;;5072816;28;19917;-74
2023/03/02 09:19:41;;;;;;;;;;;230.40;2252.80;;;;;;5080271;28;20029;-76
2023/03/02 09:22:07;;;;;;;7.82;3.92;;;230.40;2252.80;;;;;;5072292;28;19908;-76
2023/03/02 09:24:35;;;;;;;8.13;3.90;;;230.50;2252.80;;;;;;5071700;28;20032;-75
2023/03/02 09:27:01;;;;;;;6.03;3.63;;;230.40;2252.80;;;;;;5071457;28;20016;-76
2023/03/02 09:29:27;;;;;;;11.93;4.43;;;230.40;2252.80;;;;;;5076240;28;20388;-80
2023/03/02 09:31:53;;;;;;;;;;;205.70;2252.80;;;;;;5074160;28;20117;-81
2023/03/02 09:34:19;;;;;;;10.63;5.90;;;230.50;2252.80;;;;;;5072863;28;19904;-78
2023/03/02 09:36:44;;;;;;;;;;;230.40;2252.80;;;;;;5072808;28;20048;-77
2023/03/02 09:39:11;;;;;;;23.00;8.52;;;230.40;2252.80;;;;;;5072024;28;19947;-78
2023/03/02 09:42:06;;;;;;;13.60;7.85;;;230.40;2252.80;;;;;;5077500;28;20021;-80
2023/03/02 09:44:40;;;;;;;11.88;7.55;;;230.40;2252.80;;;;;;5031206;28;20076;-77
2023/03/02 09:47:43;;;;;;;18.00;8.65;;;205.70;2252.80;;;;;;5031062;28;20029;-81
2023/03/02 09:50:25;;;;;;;21.45;10.55;;;205.70;2252.80;;;;;;5031016;28;20022;-77
2023/03/02 09:53:18;;;;;;;22.30;11.07;;;205.70;2252.80;;;;;;5031135;28;20017;-77
2023/03/02 09:55:46;;;;;;;22.00;11.30;;;230.40;2252.80;;;;;;5030588;28;20037;-78
2023/03/02 09:58:18;;;;;;;20.30;11.50;;;230.40;2252.80;;;;;;5013311;28;20037;-79
2023/03/02 10:00:45;;;;;;;23.95;12.52;;;230.40;2252.80;;;;;;5029558;28;20402;-78
2023/03/02 10:03:24;;;;;;;22.42;11.98;;;230.40;2252.80;;;;;;5030326;28;20034;-78
2023/03/02 10:05:53;;;;;;;22.40;11.82;;;230.40;2252.80;;;;;;5012764;28;20124;-78
2023/03/02 10:08:24;;;;;;;23.83;11.75;;;205.70;2252.80;;;;;;5030820;28;20065;-77
2023/03/02 10:10:57;;;;;;;25.00;13.60;;;205.70;2252.80;;;;;;5029663;28;20037;-78
2023/03/02 10:13:52;;;;;;;24.65;13.40;;;205.70;2252.80;;;;;;5030338;28;20126;-77
2023/03/02 10:16:33;;;;;;;22.55;13.05;;;205.60;2252.80;;;;;;5017311;28;20069;-78
2023/03/02 10:19:26;;;;;;;29.58;13.07;;;205.60;2252.80;;;;;;5027905;28;20057;-78
2023/03/02 10:22:14;;;;;;;25.08;13.82;;;205.60;2252.80;;;;;;5066980;28;20032;-77
2023/03/02 10:24:52;;;;;;;25.55;12.68;;;205.70;2252.80;;;;;;5072289;28;20021;-77
2023/03/02 10:27:24;;;;;;;26.55;14.50;;;205.60;2252.80;;;;;;5071905;28;20533;-78
2023/03/02 10:30:00;;;;;;;21.35;12.50;;;205.70;2252.80;;;;;;5076560;28;20492;-77
2023/03/02 10:32:40;;;;;;;24.48;13.88;;;205.60;2252.80;;;;;;5075677;28;20049;-77
2023/03/02 10:35:33;;;;;;;24.77;13.52;;;205.60;2252.80;;;;;;5075961;28;20035;-78
2023/03/02 10:38:09;;;;;;;26.90;12.55;;;205.60;2252.80;;;;;;5070409;28;20044;-78
2023/03/02 10:40:48;;;;;;;31.90;14.50;;;205.60;2252.80;;;;;;5072862;28;20107;-78
2023/03/02 10:43:52;;;;;;;27.20;13.73;;;205.70;2252.80;;;;;;5076307;28;20028;-76
2023/03/02 10:46:17;;;;;;;28.48;14.88;;;205.60;2252.80;;;;;;5089254;28;20035;-76
2023/03/02 10:48:49;;;;;;;27.92;13.38;;;205.60;2252.80;;;;;;5074555;28;20032;-78
2023/03/02 10:51:41;;;;;;;26.98;14.75;;;205.50;2252.80;;;;;;5074553;28;20362;-76
2023/03/02 10:54:13;;;;;;;32.17;15.95;;;205.50;2252.80;;;;;;5068676;28;20047;-78
2023/03/02 10:56:47;;;;;;;32.30;18.08;;;205.50;2252.80;;;;;;5073871;28;20071;-78
2023/03/02 10:59:28;;;;;;;33.03;17.05;;;205.60;2252.80;;;;;;5076057;28;20024;-80
2023/03/02 11:02:02;;;;;;;40.90;19.70;;;205.50;2252.80;;;;;;5081389;28;20040;-77
2023/03/02 11:04:29;;;;;;;32.40;17.90;;;205.50;2252.80;;;;;;5074952;28;20107;-76
2023/03/02 11:06:55;;;;;;;30.20;16.70;;;205.40;2252.80;;;;;;5081580;28;20024;-76
2023/03/02 11:09:20;;;;;;;33.40;17.88;;;205.30;2252.80;;;;;;5074390;28;20315;-77
2023/03/02 11:11:54;;;;;;;;;;;205.30;2252.80;;;;;;5074920;28;20334;-77
2023/03/02 11:14:21;;;;;;;29.42;16.48;;;205.40;2252.80;;;;;;5067749;28;19908;-76
2023/03/02 11:16:47;;;;;;;30.52;17.42;;;205.30;2252.80;;;;;;5087175;28;20057;-75
2023/03/02 11:19:31;;;;;;;;;;;205.20;2252.80;;;;;;5075137;28;20086;-76
2023/03/02 11:22:08;;;;;;;28.55;16.42;;;205.20;2252.80;;;;;;5075113;28;19905;-76
2023/03/02 11:24:52;;;;;;;32.40;17.52;;;205.20;2252.80;;;;;;5072198;28;20094;-75
2023/03/02 11:27:23;;;;;;;37.72;18.60;;;205.20;2252.80;;;;;;5072748;28;20043;-76
2023/03/02 11:29:58;;;;;;;33.08;18.85;;;205.20;2252.80;;;;;;5075293;28;20024;-76
2023/03/02 11:32:26;;;;;;;39.05;19.67;;;205.20;2252.80;;;;;;5073839;28;20045;-76
2023/03/02 11:35:01;;;;;;;37.80;20.88;;;205.20;2252.80;;;;;;5075165;28;20028;-76
2023/03/02 11:37:35;;;;;;;39.97;19.60;;;205.30;2252.80;;;;;;5072513;28;20091;-74
2023/03/02 11:40:04;;;;;;;44.25;21.63;;;205.40;2252.80;;;;;;5073629;28;20013;-76
2023/03/02 11:42:34;;;;;;;36.03;19.92;;;205.50;2252.80;;;;;;5086292;28;20055;-78
2023/03/02 11:45:22;;;;;;;34.28;21.02;;;205.50;2252.80;;;;;;5074289;28;20020;-76
2023/03/02 11:47:55;;;;;;;42.90;20.63;;;205.50;2252.80;;;;;;5075876;28;20013;-79
2023/03/02 11:50:22;;;;;;;39.90;19.67;;;205.40;2252.80;;;;;;5073677;28;20024;-78
2023/03/02 11:52:56;;;;;;;38.20;21.30;;;205.50;2252.80;;;;;;5072384;28;20020;-79
2023/03/02 11:55:25;;;;;;;36.75;21.08;;;205.60;2252.80;;;;;;5062608;28;20024;-78
2023/03/02 11:58:00;;;;;;;35.53;20.02;;;205.60;2252.80;;;;;;5078964;28;20066;-77
2023/03/02 12:00:37;;;;;;;38.13;20.70;;;205.70;2252.80;;;;;;5089282;28;20487;-78
2023/03/02 12:03:05;;;;;;;40.03;20.85;;;205.70;2252.80;;;;;;5090741;28;20424;-78
2023/03/02 12:05:35;;;;;;;37.95;20.33;;;205.70;2252.80;;;;;;5073000;28;20020;-77
2023/03/02 12:08:35;;;;;;;41.88;20.80;;;230.40;2252.80;;;;;;5089691;28;20252;-76
2023/03/02 12:11:16;;;;;;;37.15;20.80;;;230.50;2252.80;;;;;;5073985;28;20024;-78
2023/03/02 12:14:04;;;;;;;35.40;20.27;;;230.60;2252.80;;;;;;5072790;28;20029;-77
2023/03/02 12:16:40;;;;;;;36.17;19.77;;;230.70;2252.80;;;;;;5087164;28;20094;-76
2023/03/02 12:19:17;;;;;;;34.95;18.83;;;230.60;2252.80;;;;;;5071818;28;20032;-78
2023/03/02 12:22:04;;;;;;;32.65;17.52;;;230.80;2252.80;;;;;;5073291;28;20536;-79
2023/03/02 12:24:34;;;;;;;31.27;17.17;;;230.80;2252.80;;;;;;5074810;28;20404;-81
2023/03/02 12:27:05;;;;;;;29.65;16.15;;;230.70;2252.80;;;;;;5084214;28;20029;-80
2023/03/02 12:29:38;;;;;;;33.15;17.98;;;230.80;2252.80;;;;;;5091237;28;20514;-81
2023/03/02 12:32:24;;;;;;;29.10;15.63;;;230.80;2252.80;;;;;;5074527;28;20080;-81